• Join FlightAware (Why Join?)
  • Login
  • US Flag 
11:07AM EDT


 

Airport Tracker/Info


-or-


 

Live Flight TrackerFlight Track Log ✈ SWA876 ✈ 06-Jul-2013 ✈ KDCA - KSTL

Flight Track Log - Related Links

Times and Time Zones

All times are in EDT time to prevent confusion due to time zone crossing. See the SWA876 flight status page for this flight to view local times or setup timezone preferences in your user account.

Time Position Orientation Groundspeed Altitude Reporting Facility
EDT Latitude Longitude Course Direction KTS MPH feet Rate Location/Type
12:14PM 38.8333 -77.0333 180° South 148 170 1,200  Level Potomac TRACON
12:15PM 38.7667 -77.0333 180° South 211 243 3,000 1,980 Climbing Potomac TRACON
12:15PM 38.7333 -77.0667 218° Southwest 226 260 5,000 1,680 Climbing Potomac TRACON
12:17PM 38.7167 -77.1667 258° West 255 293 6,400 2,340 Climbing Potomac TRACON
12:18PM 38.7719 -77.3117 296° West 295 339 11,900 2,580 Climbing Washington Center
12:19PM 38.8058 -77.4136 293° West 300 345 13,800 2,460 Climbing Washington Center
12:20PM 38.8328 -77.5503 284° West 342 394 16,900 1,620 Climbing Washington Center
12:21PM 38.8539 -77.6656 283° West 371 427 17,000 300 Climbing Washington Center
12:22PM 38.8828 -77.8022 285° West 371 427 17,500 1,200 Climbing Washington Center
12:23PM 38.9053 -77.9336 282° West 371 427 19,500 2,100 Climbing Washington Center
12:24PM 38.9317 -78.0653 284° West 376 433 21,800 2,160 Climbing Washington Center
12:25PM 38.9581 -78.2050 284° West 381 438 23,900 2,040 Climbing Washington Center
12:26PM 38.9650 -78.3522 274° West 404 465 25,900 1,860 Climbing Washington Center
12:27PM 38.9700 -78.5044 272° West 421 484 27,700 1,620 Climbing Washington Center
12:28PM 38.9744 -78.6569 272° West 427 491 29,300 1,560 Climbing Washington Center
12:29PM 38.9764 -78.8172 271° West 438 504 30,800 1,620 Climbing Washington Center
12:30PM 38.9825 -78.9778 273° West 451 519 32,600 1,680 Climbing Washington Center
12:31PM 38.9864 -79.1328 272° West 451 519 34,200 1,440 Climbing Washington Center
12:32PM 38.9897 -79.2958 272° West 451 519 35,600 1,500 Climbing Washington Center
12:33PM 38.9931 -79.4564 272° West 451 519 37,200 1,200 Climbing Washington Center
12:34PM 38.9983 -79.6142 273° West 446 513 38,000 360 Climbing Washington Center
12:35PM 39.0019 -79.7558 272° West 454 522 38,000  Level Washington Center
12:36PM 39.0014 -79.9028 270° West 437 503 38,000  Level Indianapolis Center
12:37PM 39.0031 -80.0514 271° West 432 497 38,000  Level Indianapolis Center
12:38PM 39.0064 -80.1950 272° West 429 494 38,000  Level Indianapolis Center
12:39PM 39.0128 -80.3478 273° West 429 494 38,000  Level Indianapolis Center
12:40PM 39.0428 -80.5283 282° West 431 496 38,000  Level Indianapolis Center
12:41PM 39.0658 -80.6792 281° West 430 495 38,000  Level Indianapolis Center
12:42PM 39.0903 -80.8286 282° West 428 493 38,000  Level Indianapolis Center
12:43PM 39.1131 -80.9761 281° West 425 489 38,000  Level Indianapolis Center
12:44PM 39.1364 -81.1242 282° West 422 486 38,000  Level Indianapolis Center
12:45PM 39.1600 -81.2728 282° West 425 489 38,000  Level Indianapolis Center
12:47PM 39.1817 -81.4197 281° West 422 486 38,000  Level Indianapolis Center
12:48PM 39.2086 -81.5992 281° West 426 490 38,000  Level Indianapolis Center
12:49PM 39.2297 -81.7492 280° West 428 493 38,000  Level Indianapolis Center
12:50PM 39.2533 -81.9000 281° West 430 495 38,000  Level Indianapolis Center
12:51PM 39.2750 -82.0531 280° West 434 499 38,000  Level Indianapolis Center
12:52PM 39.2964 -82.2047 280° West 433 498 38,000  Level Indianapolis Center
12:53PM 39.3186 -82.3578 281° West 434 499 38,000  Level Indianapolis Center
12:54PM 39.3414 -82.5319 280° West 432 497 38,000  Level Indianapolis Center
12:55PM 39.3639 -82.6839 281° West 428 493 38,000  Level Indianapolis Center
12:56PM 39.3844 -82.8367 280° West 427 491 38,000  Level Indianapolis Center
12:57PM 39.4064 -82.9906 281° West 430 495 38,000  Level Indianapolis Center
12:58PM 39.4258 -83.1442 279° West 429 494 38,000  Level Indianapolis Center
12:59PM 39.4464 -83.2964 280° West 424 488 38,000  Level Indianapolis Center
01:00PM 39.4669 -83.4489 280° West 423 487 38,000  Level Indianapolis Center
01:01PM 39.4867 -83.6008 280° West 422 486 38,000  Level Indianapolis Center
01:02PM 39.5019 -83.7525 277° West 419 482 38,000  Level Indianapolis Center
01:03PM 39.5003 -83.9019 269° West 412 474 38,000  Level Indianapolis Center
01:04PM 39.4997 -84.0536 270° West 414 476 38,000  Level Indianapolis Center
01:05PM 39.4975 -84.2044 269° West 414 476 38,000  Level Indianapolis Center
01:06PM 39.4942 -84.3800 269° West 414 476 38,000  Level Indianapolis Center
01:07PM 39.4933 -84.5322 270° West 418 481 38,000  Level Indianapolis Center
01:08PM 39.4911 -84.6833 269° West 417 480 38,000  Level Indianapolis Center
01:09PM 39.4889 -84.8333 269° West 416 479 38,000  Level Indianapolis Center
01:10PM 39.4847 -84.9942 268° West 415 478 38,000  Level Indianapolis Center
01:11PM 39.4836 -85.1431 269° West 413 475 38,000  Level Indianapolis Center
01:12PM 39.4789 -85.2919 268° West 417 480 38,000  Level Indianapolis Center
01:13PM 39.4767 -85.4411 269° West 415 478 38,000  Level Indianapolis Center
01:14PM 39.4739 -85.5883 269° West 411 473 38,000  Level Indianapolis Center
01:15PM 39.4697 -85.7378 268° West 415 478 38,000  Level Indianapolis Center
01:16PM 39.4664 -85.8864 268° West 414 476 38,000  Level Indianapolis Center
01:17PM 39.4617 -86.0344 268° West 412 474 38,000  Level Indianapolis Center
01:18PM 39.4569 -86.2139 268° West 412 474 38,000  Level Indianapolis Center
01:19PM 39.4522 -86.3631 268° West 412 474 38,000  Level Indianapolis Center
01:20PM 39.4486 -86.5094 268° West 407 468 38,000  Level Indianapolis Center
01:21PM 39.4433 -86.6553 267° West 405 466 38,000  Level Indianapolis Center
01:22PM 39.4389 -86.7997 268° West 402 463 38,000  Level Indianapolis Center
01:24PM 39.4347 -86.9456 268° West 405 466 38,000  Level Indianapolis Center
01:25PM 39.4289 -87.0908 267° West 406 467 38,000  Level Indianapolis Center
01:26PM 39.4231 -87.2372 267° West 408 470 38,000  Level Indianapolis Center
01:27PM 39.4183 -87.3861 268° West 415 478 38,000 -60 Level Indianapolis Center
01:28PM 39.4106 -87.5667 267° West 420 483 37,900 -1,260 Descending Indianapolis Center
01:29PM 39.4056 -87.7175 268° West 422 486 35,500 -2,640 Descending Indianapolis Center
01:30PM 39.3981 -87.8694 266° West 425 489 32,600 -2,640 Descending Indianapolis Center
01:31PM 39.3911 -88.0275 267° West 439 505 30,200 -1,320 Descending Indianapolis Center
01:32PM 39.3600 -88.1728 255° West 420 483 30,000 -540 Descending Indianapolis Center
01:33PM 39.3219 -88.3186 251° West 414 476 29,100 -1,380 Descending Indianapolis Center
01:33PM 39.2972 -88.4064 250° West 418 481 27,900 -2,100 Descending Kansas City Center
01:34PM 39.2597 -88.5483 251° West 417 480 25,900 -1,800 Descending Kansas City Center
01:35PM 39.2250 -88.6775 251° West 416 479 24,200 -960 Descending Kansas City Center
01:36PM 39.1881 -88.8119 251° West 405 466 24,000 -120 Descending Kansas City Center
01:37PM 39.1456 -88.9686 251° West 400 460 24,000 -420 Level Kansas City Center
01:38PM 39.1058 -89.1144 251° West 402 463 23,200 -1,320 Descending Kansas City Center
01:39PM 39.0725 -89.2506 253° West 400 460 21,300 -1,560 Descending Kansas City Center
01:40PM 39.0403 -89.3997 255° West 403 464 20,000 -1,620 Descending Kansas City Center
01:41PM 39.0100 -89.5350 254° West 397 457 18,000 -2,220 Descending Kansas City Center
01:43PM 38.9728 -89.6728 251° West 385 443 15,500 -1,920 Descending Kansas City Center
01:44PM 38.9347 -89.7906 247° West 362 417 14,100 -1,620 Descending Kansas City Center
01:45PM 38.8956 -89.9006 245° Southwest 341 392 12,200 -1,800 Descending Kansas City Center
01:46PM 38.8492 -89.9997 239° Southwest 330 380 10,400 -1,320 Descending Kansas City Center
01:47PM 38.8300 -90.1000 256° West 299 344 9,500 -1,140 Descending Kansas City Center
01:48PM 38.8069 -90.1956 253° West 284 327 8,100 -1,080 Descending Kansas City Center
01:49PM 38.8256 -90.2811 286° West 269 310 7,300 -960 Descending Kansas City Center
01:50PM 38.8642 -90.3706 299° West 246 283 6,200 -1,140 Descending Kansas City Center
01:51PM 38.8992 -90.4419 302° West 240 276 5,000 -1,020 Descending Kansas City Center
01:52PM 38.8614 -90.4983 229° Southwest 233 268 4,200 -1,020 Descending Kansas City Center
01:53PM 38.8114 -90.4947 177° South 209 241 2,900 -1,200 Descending Kansas City Center
01:54PM 38.7836 -90.4397 123° Southeast 194 223 1,800 -1,020 Descending Kansas City Center
01:55PM 38.7614 -90.3950 122° Southeast 168 193 900 -900 Descending Kansas City Center